METAR stanice u blizini

 

LYBE - Beograd / Surčin, Srbija
Ažurirano: 23/09/2020 10:00
Vedro
Vedro
 Pravac vetra JJI
Vetar: JJI 15 km/h
Temperatura: 25°C
Tačka rose: 13°C
Vlažnost: 47%
Pritisak: 1012 hPa
Pregled: Vedro
Vidljivost: greater than 10 km
2020/09/23 08:00 LYBE 230800Z 16008KT CAVOK 25/13 Q1012 NOSIG
LYBT - Beograd / Batajnica, Srbija
Ažurirano: 23/09/2020 10:00
Vedro
Vedro
 Pravac vetra JJI
Vetar: JJI 9 km/h
Temperatura: 24°C
Tačka rose: 13°C
Vlažnost: 50%
Pritisak: 1012 hPa
Pregled: Vedro
Vidljivost: greater than 10 km
2020/09/23 08:00 LYBT 230800Z 16005KT 110V210 CAVOK 24/13 Q1012 NOSIG
LYVR - Vršac, Srbija
Ažurirano: 23/09/2020 10:00
Vedro
Vedro
 Pravac vetra JI
Vetar: JI 35 km/h, Maks.: 56 km/h
Temperatura: 24°C
Tačka rose: 9°C
Vlažnost: 39%
Pritisak: 1012 hPa
Pregled: Vedro
Vidljivost: greater than 10 km
2020/09/23 08:00 LYVR 230800Z 14019G30KT CAVOK 24/09 Q1012 NOSIG
 
LYKV - Lađevci, Srbija
Ažurirano: 23/09/2020 10:00
Partly Cloudy
Partly Cloudy
 Pravac vetra varies
Vetar: varies 2 km/h
Temperatura: 19°C
Tačka rose: 17°C
Vlažnost: 88%
Pritisak: 1014 hPa
Oblaci: Partly Cloudy
Vidljivost: 10 km
Cloud details: Partly Cloudy 1219 m
2020/09/23 08:00 LYKV 230800Z VRB01KT 9999 SCT040 19/17 Q1014 NOSIG
LYNI - Niš, Srbija
Ažurirano: 23/09/2020 10:00
Few Clouds
Few Clouds
 Pravac vetra J
Vetar: J 13 km/h
Temperatura: 22°C
Tačka rose: 13°C
Vlažnost: 57%
Pritisak: 1015 hPa
Oblaci: Few Clouds
Vidljivost: 10 km
Cloud details: Few Clouds 1219 m
2020/09/23 08:00 LYNI 230800Z 19007KT 140V240 9999 FEW040 22/13 Q1015 NOSIG
BKPR - Priština, Srbija
Ažurirano: 23/09/2020 10:30
Mostly Cloudy
Mostly Cloudy
 Pravac vetra varies
Vetar: varies 6 km/h
Temperatura: 17°C
Tačka rose: 13°C
Vlažnost: 77%
Pritisak: 1017 hPa
Oblaci: Mostly Cloudy
Vidljivost: 10 km
Cloud details: Few Clouds 427 m
Partly Cloudy 914 m
Mostly Cloudy 2134 m
2020/09/23 08:30 BKPR 230830Z VRB03KT 9999 FEW014 SCT030 BKN070 17/13 Q1017 NOSIG
 
LHPP - Pecs / Pogany, Hungary
Ažurirano: 23/09/2020 09:15
NOT Current
Vedro
Vedro
 Pravac vetra ISI
Vetar: ISI 4 km/h
Temperatura: 18°C
Tačka rose: 14°C
Vlažnost: 78%
Pritisak: 1011 hPa
Pregled: Vedro
Vidljivost: greater than 10 km
2020/09/23 07:15 LHPP 230715Z 07002KT CAVOK 18/14 Q1011
LHUD - Szeged, Hungary
Ažurirano: 04/07/2019 01:45
NOT Current
Vedro
Vedro
 Pravac vetra S
Vetar: S 7 km/h
Temperatura: 18°C
Tačka rose: 13°C
Vlažnost: 73%
Pritisak: 1019 hPa
Pregled: Vedro
Vidljivost: greater than 10 km
2019/07/03 23:45 LHUD 032345Z 35004KT CAVOK 18/13 Q1019
LRTR - Timisoara, Romania
Ažurirano: 23/09/2020 10:00
Vedro
Vedro
 Pravac vetra IJI
Vetar: IJI 15 km/h
Temperatura: 23°C
Tačka rose: 10°C
Vlažnost: 44%
Pritisak: 1012 hPa
Pregled: Vedro
Vidljivost: greater than 10 km
2020/09/23 08:00 LRTR 230800Z 12008KT CAVOK 23/10 Q1012
 
LRCV - Craiova, Romania
Ažurirano: 23/09/2020 10:00
Vedro
Vedro
 Pravac vetra I
Vetar: I 22 km/h
Temperatura: 20°C
Tačka rose: 10°C
Vlažnost: 53%
Pritisak: 1015 hPa
Pregled: Vedro
Vidljivost: greater than 10 km
2020/09/23 08:00 LRCV 230800Z 08012KT CAVOK 20/10 Q1015
LBSF - Sofia, Bulgaria
Ažurirano: 23/09/2020 10:00
Few Clouds
Few Clouds
 Pravac vetra varies
Vetar: varies 6 km/h
Temperatura: 19°C
Tačka rose: 10°C
Vlažnost: 56%
Pritisak: 1017 hPa
Oblaci: Few Clouds
Vidljivost: 10 km
Cloud details: Few Clouds 2621 m
2020/09/23 08:00 LBSF 230800Z VRB03KT 9999 FEW086 19/10 Q1017 NOSIG
LWSK - Skoplje, Makedonija
Ažurirano: 23/09/2020 10:30
Partly Cloudy
Partly Cloudy
 Pravac vetra calm
Vetar: Tišina
Temperatura: 19°C
Tačka rose: 16°C
Vlažnost: 83%
Pritisak: 1017 hPa
Oblaci: Partly Cloudy
Vidljivost: 10 km
Cloud details: Few Clouds 701 m
Partly Cloudy 3048 m
2020/09/23 08:30 LWSK 230830Z 00000KT 9999 FEW023 SCT100 19/16 Q1017 NOSIG
 
LYPG - Podgorica, Crna Gora
Ažurirano: 23/09/2020 10:00
Partly Cloudy
Partly Cloudy
 Pravac vetra varies
Vetar: varies 2 km/h
Temperatura: 20°C
Tačka rose: 16°C
Vlažnost: 78%
Pritisak: 1016 hPa
Oblaci: Partly Cloudy
Vidljivost: 10 km
Cloud details: Few Clouds 488 m
Partly Cloudy 792 m
2020/09/23 08:00 LYPG 230800Z VRB01KT 9999 FEW016 SCT026 20/16 Q1016 NOSIG
LQSA - Sarajevo, Bosna i Hercegovina
Ažurirano: 23/09/2020 10:00
Mist, Delimično oblačno
Mist, Delimično oblačno
 Pravac vetra varies
Vetar: varies 4 km/h
Temperatura: 15°C
Tačka rose: 15°C
Vlažnost: 100%
Pritisak: 1014 hPa
Pregled: Mist
Oblaci: Partly Cloudy
Vidljivost: 5 km
Cloud details: Partly Cloudy 122 m
2020/09/23 08:00 LQSA 230800Z VRB02KT 5000 BR SCT004 15/15 Q1014 NOSIG
LDOS - Osijek, Hrvatksa
Ažurirano: 23/09/2020 10:00
Vedro
Vedro
 Pravac vetra J
Vetar: J 11 km/h
Temperatura: 20°C
Tačka rose: 15°C
Vlažnost: 73%
Pritisak: 1011 hPa
Pregled: Vedro
Vidljivost: greater than 10 km
2020/09/23 08:00 LDOS 230800Z 19006KT 160V230 CAVOK 20/15 Q1011